sensor_id;sensor_type;location;lat;lon;timestamp;pressure;altitude;pressure_sealevel;temperature;humidity
69593;BME280;56796;50.122;14.468;2023-09-12T00:07:17;976;;;21.53;78.08
69593;BME280;56796;50.122;14.468;2023-09-12T00:26:40;976.01;;;21.38;79.09
69593;BME280;56796;50.122;14.468;2023-09-12T00:46:10;975.95;;;21.09;80.33
69593;BME280;56796;50.122;14.468;2023-09-12T01:05:34;976.07;;;20.82;81.36
69593;BME280;56796;50.122;14.468;2023-09-12T01:44:30;976.09;;;20.44;83.31
69593;BME280;56796;50.122;14.468;2023-09-12T02:04:00;976.21;;;20.19;84.18
69593;BME280;56796;50.122;14.468;2023-09-12T02:23:19;976.25;;;20.07;84.45
69593;BME280;56796;50.122;14.468;2023-09-12T02:42:45;976.24;;;19.64;86.16
69593;BME280;56796;50.122;14.468;2023-09-12T03:02:08;976.27;;;19.6;86.31
69593;BME280;56796;50.122;14.468;2023-09-12T03:21:35;976.19;;;19.34;86.8
69593;BME280;56796;50.122;14.468;2023-09-12T03:40:59;976.17;;;19.37;87.54
69593;BME280;56796;50.122;14.468;2023-09-12T04:00:32;976.26;;;19.18;88.38
69593;BME280;56796;50.122;14.468;2023-09-12T04:19:48;976.32;;;19.15;88.83
69593;BME280;56796;50.122;14.468;2023-09-12T04:39:16;976.33;;;19.08;88.85
69593;BME280;56796;50.122;14.468;2023-09-12T04:58:44;976.34;;;19.25;88.35
69593;BME280;56796;50.122;14.468;2023-09-12T05:18:11;976.48;;;19.49;87.33
69593;BME280;56796;50.122;14.468;2023-09-12T05:37:39;976.52;;;19.7;86.79
69593;BME280;56796;50.122;14.468;2023-09-12T05:57:09;976.56;;;19.99;86.2
69593;BME280;56796;50.122;14.468;2023-09-12T06:16:43;976.64;;;21.45;80.53
69593;BME280;56796;50.122;14.468;2023-09-12T06:36:16;976.69;;;22.69;74.95
69593;BME280;56796;50.122;14.468;2023-09-12T06:55:48;976.76;;;24.01;70.6
69593;BME280;56796;50.122;14.468;2023-09-12T07:15:22;976.79;;;25.4;65.57
69593;BME280;56796;50.122;14.468;2023-09-12T07:34:55;976.8;;;27.11;61.49
69593;BME280;56796;50.122;14.468;2023-09-12T07:54:25;976.8;;;27.43;59.54
69593;BME280;56796;50.122;14.468;2023-09-12T08:14:00;976.91;;;28.81;56.65
69593;BME280;56796;50.122;14.468;2023-09-12T08:33:30;976.9;;;30.57;52.82
69593;BME280;56796;50.122;14.468;2023-09-12T08:53:03;976.92;;;31.12;50.99
69593;BME280;56796;50.122;14.468;2023-09-12T09:12:33;976.85;;;30.41;52.46
69593;BME280;56796;50.122;14.468;2023-09-12T09:31:58;976.92;;;32.27;49.9
69593;BME280;56796;50.122;14.468;2023-09-12T09:51:30;976.79;;;33.12;46.06
69593;BME280;56796;50.122;14.468;2023-09-12T10:11:01;976.62;;;34.21;44.17
69593;BME280;56796;50.122;14.468;2023-09-12T10:30:32;976.45;;;35.28;42.69
69593;BME280;56796;50.122;14.468;2023-09-12T10:50:04;976.29;;;34.83;41.6
69593;BME280;56796;50.122;14.468;2023-09-12T11:09:31;976.33;;;35.5;38.8
69593;BME280;56796;50.122;14.468;2023-09-12T11:48:29;976.24;;;35.82;36.57
69593;BME280;56796;50.122;14.468;2023-09-12T12:07:57;976.07;;;35.66;37.11
69593;BME280;56796;50.122;14.468;2023-09-12T12:27:24;976;;;35.86;35.73
69593;BME280;56796;50.122;14.468;2023-09-12T12:46:50;975.89;;;35.91;35.47
69593;BME280;56796;50.122;14.468;2023-09-12T13:06:16;975.67;;;36.05;34.99
69593;BME280;56796;50.122;14.468;2023-09-12T13:25:42;975.56;;;35.28;35.35
69593;BME280;56796;50.122;14.468;2023-09-12T13:45:07;975.44;;;35.11;35.17
69593;BME280;56796;50.122;14.468;2023-09-12T14:04:32;975.31;;;34.84;36.18
69593;BME280;56796;50.122;14.468;2023-09-12T14:23:57;975.25;;;33.84;36.72
69593;BME280;56796;50.122;14.468;2023-09-12T14:43:22;975.29;;;33.66;37.24
69593;BME280;56796;50.122;14.468;2023-09-12T15:02:50;975.27;;;33.84;36.84
69593;BME280;56796;50.122;14.468;2023-09-12T15:22:15;975.25;;;32.79;38.73
69593;BME280;56796;50.122;14.468;2023-09-12T15:41:38;975.15;;;31.97;40.75
69593;BME280;56796;50.122;14.468;2023-09-12T16:01:03;975.12;;;30.55;44.11
69593;BME280;56796;50.122;14.468;2023-09-12T16:20:27;975.06;;;30.27;45.53
69593;BME280;56796;50.122;14.468;2023-09-12T16:39:52;975.09;;;29.45;47.14
69593;BME280;56796;50.122;14.468;2023-09-12T16:59:17;975.16;;;28.77;49.64
69593;BME280;56796;50.122;14.468;2023-09-12T17:18:43;975.22;;;28.25;51.13
69593;BME280;56796;50.122;14.468;2023-09-12T17:38:09;975.18;;;27.76;52.07
69593;BME280;56796;50.122;14.468;2023-09-12T17:57:36;975.18;;;27.38;53.32
69593;BME280;56796;50.122;14.468;2023-09-12T18:17:03;975.3;;;27.03;54.55
69593;BME280;56796;50.122;14.468;2023-09-12T18:36:29;975.41;;;26.74;55.85
69593;BME280;56796;50.122;14.468;2023-09-12T18:55:56;975.37;;;26.3;57.09
69593;BME280;56796;50.122;14.468;2023-09-12T19:15:23;975.55;;;26;57.85
69593;BME280;56796;50.122;14.468;2023-09-12T19:34:50;975.53;;;25.7;58.54
69593;BME280;56796;50.122;14.468;2023-09-12T19:54:17;975.58;;;25.19;60.22
69593;BME280;56796;50.122;14.468;2023-09-12T20:13:43;975.68;;;24.88;60.68
69593;BME280;56796;50.122;14.468;2023-09-12T20:33:10;975.57;;;24.57;61.5
69593;BME280;56796;50.122;14.468;2023-09-12T20:52:37;975.62;;;24.25;62.18
69593;BME280;56796;50.122;14.468;2023-09-12T21:12:07;975.67;;;24.09;62.68
69593;BME280;56796;50.122;14.468;2023-09-12T21:31:25;975.63;;;24.03;63.02
69593;BME280;56796;50.122;14.468;2023-09-12T21:50:53;975.41;;;23.82;63.94
69593;BME280;56796;50.122;14.468;2023-09-12T22:10:20;975.39;;;23.8;64.63
69593;BME280;56796;50.122;14.468;2023-09-12T22:29:48;975.4;;;23.52;63.58
69593;BME280;56796;50.122;14.468;2023-09-12T22:49:15;975.41;;;23.27;65.05
69593;BME280;56796;50.122;14.468;2023-09-12T23:08:41;975.54;;;22.83;66.55
69593;BME280;56796;50.122;14.468;2023-09-12T23:28:07;975.51;;;22.58;67.51
69593;BME280;56796;50.122;14.468;2023-09-12T23:47:34;975.47;;;22.27;68.8
